Time;durP1;ratioP1;P1;durP2;ratioP2;P2;SDS_P1;SDS_P2;PMS_P1;PMS_P2;Temp;Humidity;BMP_temperature;BMP_pressure;BME280_temperature;BME280_humidity;BME280_pressure;Samples;Min_cycle;Max_cycle;Signal;HPM_P1;HPM_P2
2023/11/27 00:01:32;;;;;;;9.50;3.63;;;3.60;99.90;;;;;;5047569;28;20465;-67
2023/11/27 00:04:00;;;;;;;10.07;3.60;;;3.50;99.90;;;;;;5047040;28;20479;-66
2023/11/27 00:06:28;;;;;;;8.90;4.07;;;3.40;99.90;;;;;;5047232;28;20444;-67
2023/11/27 00:08:56;;;;;;;8.80;3.63;;;3.40;99.90;;;;;;5047185;28;20448;-67
2023/11/27 00:11:24;;;;;;;8.67;3.00;;;3.30;99.90;;;;;;5047143;28;21013;-67
2023/11/27 00:13:53;;;;;;;8.40;3.30;;;3.20;99.90;;;;;;5046905;28;21142;-67
2023/11/27 00:16:22;;;;;;;9.60;3.43;;;3.00;99.90;;;;;;5047525;28;20443;-66
2023/11/27 00:18:52;;;;;;;9.27;3.70;;;3.10;99.90;;;;;;5047125;28;21013;-66
2023/11/27 00:21:20;;;;;;;10.00;3.73;;;3.20;99.90;;;;;;5047578;28;20485;-65
2023/11/27 00:23:48;;;;;;;8.83;3.20;;;3.30;99.90;;;;;;5048168;28;20517;-65
2023/11/27 00:26:16;;;;;;;8.57;3.60;;;3.20;99.90;;;;;;5048524;28;20501;-66
2023/11/27 00:28:44;;;;;;;8.20;3.03;;;3.10;99.90;;;;;;5048007;28;20464;-66
2023/11/27 00:31:12;;;;;;;10.53;3.40;;;3.10;99.90;;;;;;5048234;28;20460;-65
2023/11/27 00:33:41;;;;;;;8.90;3.70;;;3.10;99.90;;;;;;5047990;28;20432;-65
2023/11/27 00:36:12;;;;;;;15.33;3.77;;;3.00;99.90;;;;;;5048140;28;20529;-66
2023/11/27 00:38:40;;;;;;;12.00;3.57;;;3.00;99.90;;;;;;5047958;28;20448;-66
2023/11/27 00:41:14;;;;;;;9.93;4.10;;;3.10;99.90;;;;;;5047275;28;21093;-65
2023/11/27 00:43:42;;;;;;;10.33;3.80;;;3.00;99.90;;;;;;5047748;28;21182;-62
2023/11/27 00:46:10;;;;;;;8.27;3.33;;;2.90;99.90;;;;;;5041950;28;20439;-64
2023/11/27 00:48:38;;;;;;;9.37;2.90;;;2.90;99.90;;;;;;5046620;28;20444;-66
2023/11/27 00:51:07;;;;;;;9.60;3.40;;;2.90;99.90;;;;;;5046826;28;20494;-66
2023/11/27 00:53:36;;;;;;;8.77;3.10;;;2.80;99.90;;;;;;5046926;28;20452;-63
2023/11/27 00:56:06;;;;;;;9.60;3.50;;;2.70;99.90;;;;;;5046096;28;20483;-66
2023/11/27 00:58:37;;;;;;;9.13;3.20;;;2.70;99.90;;;;;;5054410;28;20464;-66
2023/11/27 01:01:06;;;;;;;10.53;3.37;;;2.70;99.90;;;;;;5046884;28;20509;-66
2023/11/27 01:03:34;;;;;;;10.33;3.90;;;2.60;99.90;;;;;;5046556;28;20472;-65
2023/11/27 01:06:01;;;;;;;8.33;3.30;;;2.70;99.90;;;;;;5046315;28;20439;-65
2023/11/27 01:08:29;;;;;;;8.60;3.30;;;2.70;99.90;;;;;;5045403;28;20526;-65
2023/11/27 01:10:59;;;;;;;8.80;3.07;;;2.80;99.90;;;;;;5047982;28;20467;-67
2023/11/27 01:13:27;;;;;;;8.17;2.67;;;2.90;99.90;;;;;;5055987;28;20956;-65
2023/11/27 01:15:56;;;;;;;8.80;2.97;;;2.70;99.90;;;;;;5047393;28;20456;-62
2023/11/27 01:18:24;;;;;;;8.30;3.20;;;2.70;99.90;;;;;;5047538;28;20937;-65
2023/11/27 01:20:52;;;;;;;9.80;3.43;;;2.60;99.90;;;;;;5047628;28;20468;-66
2023/11/27 01:23:20;;;;;;;11.73;3.87;;;2.60;99.90;;;;;;5049207;28;20525;-66
2023/11/27 01:25:48;;;;;;;8.90;3.13;;;2.60;99.90;;;;;;5051244;28;20451;-66
2023/11/27 01:28:18;;;;;;;11.20;3.83;;;2.60;99.90;;;;;;5051032;28;20487;-66
2023/11/27 01:30:46;;;;;;;10.17;3.73;;;2.60;99.90;;;;;;5051632;28;20476;-66
2023/11/27 01:33:15;;;;;;;9.07;3.73;;;2.60;99.90;;;;;;5051296;28;20450;-66
2023/11/27 01:35:43;;;;;;;10.10;3.40;;;2.70;99.90;;;;;;5050690;28;20497;-64
2023/11/27 01:38:11;;;;;;;9.30;3.80;;;2.70;99.90;;;;;;5051780;28;20443;-66
2023/11/27 01:40:39;;;;;;;10.17;3.87;;;2.80;99.90;;;;;;5051322;28;21050;-66
2023/11/27 01:43:14;;;;;;;10.10;3.47;;;2.90;99.90;;;;;;5051395;28;20440;-66
2023/11/27 01:45:44;;;;;;;10.17;3.37;;;2.90;99.90;;;;;;5050484;28;20832;-65
2023/11/27 01:48:11;;;;;;;8.13;2.97;;;2.90;99.90;;;;;;5051312;28;21134;-65
2023/11/27 01:50:39;;;;;;;9.63;3.13;;;2.90;99.90;;;;;;5052003;28;20518;-66
2023/11/27 01:53:07;;;;;;;9.73;3.40;;;2.90;99.90;;;;;;5055387;28;20891;-65
2023/11/27 01:55:35;;;;;;;8.93;3.20;;;2.90;99.90;;;;;;5053336;28;20529;-65
2023/11/27 01:58:03;;;;;;;8.87;3.23;;;2.80;99.90;;;;;;5051073;28;20458;-66
2023/11/27 02:00:31;;;;;;;10.10;3.17;;;2.80;99.90;;;;;;5050329;28;20472;-65
2023/11/27 02:03:02;;;;;;;8.70;3.20;;;2.90;99.90;;;;;;5051207;28;20487;-64
2023/11/27 02:05:30;;;;;;;9.67;3.67;;;3.00;99.90;;;;;;5050154;28;20490;-66
2023/11/27 02:07:59;;;;;;;10.60;3.07;;;3.00;99.90;;;;;;5050635;28;20480;-66
2023/11/27 02:10:27;;;;;;;12.23;3.50;;;3.00;99.90;;;;;;5050268;28;20472;-65
2023/11/27 02:12:55;;;;;;;9.10;3.40;;;3.10;99.90;;;;;;5050908;28;20454;-66
2023/11/27 02:15:23;;;;;;;8.57;3.23;;;3.10;99.90;;;;;;5050211;28;20443;-66
2023/11/27 02:17:51;;;;;;;8.80;3.13;;;3.10;99.90;;;;;;5050730;28;20440;-65
2023/11/27 02:20:21;;;;;;;9.00;3.23;;;3.10;99.90;;;;;;5050251;28;20475;-67
2023/11/27 02:22:49;;;;;;;7.83;2.70;;;3.10;99.90;;;;;;5050406;28;20451;-65
2023/11/27 02:25:18;;;;;;;9.13;2.80;;;3.10;99.90;;;;;;5049669;28;20476;-66
2023/11/27 02:27:46;;;;;;;9.87;3.47;;;3.10;99.90;;;;;;5049850;28;20458;-66
2023/11/27 02:30:14;;;;;;;9.10;2.87;;;3.20;99.90;;;;;;5049188;28;20506;-66
2023/11/27 02:32:42;;;;;;;9.07;2.70;;;3.20;99.90;;;;;;5049519;28;20497;-65
2023/11/27 02:35:10;;;;;;;10.10;3.03;;;3.20;99.90;;;;;;5047909;28;20448;-66
2023/11/27 02:37:38;;;;;;;8.50;2.60;;;3.20;99.90;;;;;;5048893;28;20943;-67
2023/11/27 02:40:10;;;;;;;7.67;2.83;;;3.20;99.90;;;;;;5048257;28;20563;-65
2023/11/27 02:42:40;;;;;;;9.90;2.80;;;3.30;99.90;;;;;;5048926;28;20447;-65
2023/11/27 02:45:10;;;;;;;9.27;2.60;;;3.30;99.90;;;;;;5048361;28;20537;-64
2023/11/27 02:47:38;;;;;;;8.63;3.00;;;3.20;99.90;;;;;;5048690;28;20476;-66
2023/11/27 02:50:08;;;;;;;10.40;2.40;;;3.30;99.90;;;;;;5048653;28;20475;-66
2023/11/27 02:52:36;;;;;;;9.10;2.90;;;3.30;99.90;;;;;;5048644;28;20844;-65
2023/11/27 02:55:05;;;;;;;8.30;2.70;;;3.30;99.90;;;;;;5047239;28;20517;-65
2023/11/27 02:57:33;;;;;;;8.87;3.10;;;3.30;99.90;;;;;;5050144;28;20463;-64
2023/11/27 03:00:03;;;;;;;8.23;2.60;;;3.30;99.90;;;;;;5049216;28;20480;-65
2023/11/27 03:02:31;;;;;;;11.13;2.20;;;3.40;99.90;;;;;;5048475;28;20471;-63
2023/11/27 03:04:59;;;;;;;9.20;2.77;;;3.30;99.90;;;;;;5048768;28;20568;-65
2023/11/27 03:07:27;;;;;;;7.77;2.03;;;3.30;99.90;;;;;;5049605;28;20451;-64
2023/11/27 03:09:55;;;;;;;8.40;2.63;;;3.30;99.90;;;;;;5049450;28;20471;-63
2023/11/27 03:12:23;;;;;;;9.13;2.27;;;3.30;99.90;;;;;;5049746;28;20446;-63
2023/11/27 03:14:51;;;;;;;7.17;2.20;;;3.30;99.90;;;;;;5048798;28;20448;-65
2023/11/27 03:17:21;;;;;;;8.10;2.10;;;3.30;99.90;;;;;;5049647;28;20452;-61
2023/11/27 03:19:49;;;;;;;7.57;2.40;;;3.30;99.90;;;;;;5048874;28;20837;-67
2023/11/27 03:22:17;;;;;;;8.23;2.50;;;3.30;99.90;;;;;;5049418;28;20459;-67
2023/11/27 03:24:45;;;;;;;8.73;2.40;;;3.30;99.90;;;;;;5048619;28;20483;-68
2023/11/27 03:27:13;;;;;;;8.70;2.37;;;3.30;99.90;;;;;;5049335;28;20451;-67
2023/11/27 03:29:41;;;;;;;7.70;2.30;;;3.30;99.90;;;;;;5048981;28;20539;-66
2023/11/27 03:32:09;;;;;;;7.50;2.00;;;3.20;99.90;;;;;;5049872;28;20446;-64
2023/11/27 03:34:39;;;;;;;11.87;2.80;;;3.30;99.90;;;;;;5049359;28;20444;-64
2023/11/27 03:37:07;;;;;;;8.17;2.70;;;3.30;99.90;;;;;;5050085;28;20448;-63
2023/11/27 03:39:34;;;;;;;7.53;2.23;;;3.20;99.90;;;;;;5049908;28;20464;-64
2023/11/27 03:42:02;;;;;;;9.83;2.83;;;3.20;99.90;;;;;;5050232;28;20956;-64
2023/11/27 03:44:30;;;;;;;8.07;2.20;;;3.20;99.90;;;;;;5049238;28;20476;-63
2023/11/27 03:46:58;;;;;;;7.97;2.67;;;3.30;99.90;;;;;;5049233;28;20472;-63
2023/11/27 03:49:26;;;;;;;8.13;2.30;;;3.30;99.90;;;;;;5048716;28;21024;-64
2023/11/27 03:51:56;;;;;;;8.67;2.47;;;3.30;99.90;;;;;;5048394;28;20866;-66
2023/11/27 03:54:24;;;;;;;12.63;2.90;;;3.30;99.90;;;;;;5047073;28;20440;-66
2023/11/27 03:56:52;;;;;;;8.20;2.63;;;3.30;99.90;;;;;;5047726;28;20440;-64
2023/11/27 03:59:20;;;;;;;7.60;2.10;;;3.30;99.90;;;;;;5047052;28;20534;-64
2023/11/27 04:01:48;;;;;;;8.97;2.40;;;3.30;99.90;;;;;;5048201;28;20472;-65
2023/11/27 04:04:16;;;;;;;7.40;2.50;;;3.30;99.90;;;;;;5047505;28;21004;-66
2023/11/27 04:06:45;;;;;;;8.53;1.93;;;3.20;99.90;;;;;;5047937;28;20462;-65
2023/11/27 04:09:18;;;;;;;8.10;2.70;;;3.20;99.90;;;;;;5047774;28;20438;-62
2023/11/27 04:11:48;;;;;;;7.70;2.07;;;3.10;99.90;;;;;;5047671;28;20476;-65
2023/11/27 04:14:16;;;;;;;7.77;1.90;;;3.10;99.90;;;;;;5046884;28;20452;-66
2023/11/27 04:16:44;;;;;;;13.60;2.93;;;3.10;99.90;;;;;;5047519;28;21937;-66
2023/11/27 04:19:13;;;;;;;7.73;2.53;;;3.00;99.90;;;;;;5046107;28;20472;-62
2023/11/27 04:21:41;;;;;;;8.10;2.27;;;3.00;99.90;;;;;;5048561;28;20467;-63
2023/11/27 04:24:09;;;;;;;9.30;2.43;;;2.90;99.90;;;;;;5047032;28;20486;-65
2023/11/27 04:26:38;;;;;;;8.93;2.00;;;2.90;99.90;;;;;;5046906;28;20490;-63
2023/11/27 04:29:06;;;;;;;8.10;2.47;;;2.80;99.90;;;;;;5046755;28;20542;-62
2023/11/27 04:31:35;;;;;;;8.80;1.90;;;2.70;99.90;;;;;;5047208;28;20851;-64
2023/11/27 04:34:04;;;;;;;9.80;2.83;;;2.70;99.90;;;;;;5047468;28;20456;-65
2023/11/27 04:36:32;;;;;;;10.60;2.60;;;2.60;99.90;;;;;;5048221;28;20961;-63
2023/11/27 04:39:00;;;;;;;8.40;2.17;;;2.60;99.90;;;;;;5047747;28;20455;-62
2023/11/27 04:41:28;;;;;;;8.63;2.43;;;2.60;99.90;;;;;;5047931;28;20478;-66
2023/11/27 04:43:57;;;;;;;8.23;2.73;;;2.60;99.90;;;;;;5047354;28;20562;-63
2023/11/27 04:46:26;;;;;;;7.23;2.07;;;2.60;99.90;;;;;;5048793;28;20487;-67
2023/11/27 04:48:54;;;;;;;7.20;2.07;;;2.60;99.90;;;;;;5047590;28;20448;-65
2023/11/27 04:51:22;;;;;;;7.93;3.10;;;2.50;99.90;;;;;;5049048;28;20464;-65
2023/11/27 04:53:49;;;;;;;7.60;2.50;;;2.60;99.90;;;;;;5048202;28;20456;-62
2023/11/27 04:56:17;;;;;;;8.70;2.67;;;2.70;99.90;;;;;;5049416;28;20446;-66
2023/11/27 04:58:45;;;;;;;10.00;2.37;;;2.70;99.90;;;;;;5051429;28;20452;-65
2023/11/27 05:01:14;;;;;;;9.53;2.60;;;2.70;99.90;;;;;;5052057;28;20495;-63
2023/11/27 05:03:42;;;;;;;12.53;2.60;;;2.70;99.90;;;;;;5051761;28;20510;-63
2023/11/27 05:06:15;;;;;;;7.10;2.00;;;2.70;99.90;;;;;;5051048;28;20852;-64
2023/11/27 05:08:43;;;;;;;8.47;2.10;;;2.60;99.90;;;;;;5052018;28;20478;-64
2023/11/27 05:11:18;;;;;;;9.03;2.73;;;2.60;99.90;;;;;;5052223;28;20463;-65
2023/11/27 05:13:47;;;;;;;7.80;2.50;;;2.70;99.90;;;;;;5050846;28;20447;-65
2023/11/27 05:16:17;;;;;;;7.60;2.20;;;2.70;99.90;;;;;;5050462;28;20454;-65
2023/11/27 05:18:46;;;;;;;8.23;2.80;;;2.60;99.90;;;;;;5049958;28;20440;-64
2023/11/27 05:21:14;;;;;;;11.00;2.50;;;2.60;99.90;;;;;;5050679;28;20474;-65
2023/11/27 05:23:42;;;;;;;8.40;3.37;;;2.50;99.90;;;;;;5050767;28;20857;-64
2023/11/27 05:26:11;;;;;;;8.33;2.43;;;2.50;99.90;;;;;;5049861;28;20869;-62
2023/11/27 05:28:40;;;;;;;10.97;3.00;;;2.50;99.90;;;;;;5050561;28;20455;-65
2023/11/27 05:31:09;;;;;;;8.70;2.83;;;2.40;99.90;;;;;;5051094;28;20521;-65
2023/11/27 05:33:38;;;;;;;8.40;2.80;;;2.40;99.90;;;;;;5049478;28;20506;-65
2023/11/27 05:36:09;;;;;;;9.53;2.70;;;2.30;99.90;;;;;;5049588;28;20464;-64
2023/11/27 05:38:38;;;;;;;8.47;2.47;;;2.30;99.90;;;;;;5049504;28;20431;-65
2023/11/27 05:41:07;;;;;;;8.50;2.80;;;2.30;99.90;;;;;;5050081;28;20467;-65
2023/11/27 05:43:35;;;;;;;8.30;2.43;;;2.30;99.90;;;;;;5043899;28;20443;-64
2023/11/27 05:46:04;;;;;;;9.20;2.60;;;2.40;99.90;;;;;;5050750;28;20494;-65
2023/11/27 05:48:32;;;;;;;8.07;2.40;;;2.50;99.90;;;;;;5050690;28;20442;-65
2023/11/27 05:51:01;;;;;;;7.93;2.67;;;2.50;99.90;;;;;;5051441;28;20463;-66
2023/11/27 05:53:30;;;;;;;7.60;2.40;;;2.50;99.90;;;;;;5047958;28;20824;-65
2023/11/27 05:55:58;;;;;;;8.10;2.23;;;2.50;99.90;;;;;;5046973;28;20446;-66
2023/11/27 05:58:25;;;;;;;7.57;2.43;;;2.50;99.90;;;;;;5048842;28;20458;-65
2023/11/27 06:00:55;;;;;;;8.90;2.27;;;2.70;99.90;;;;;;5047022;28;20448;-65
2023/11/27 06:03:23;;;;;;;10.43;3.00;;;2.80;99.90;;;;;;5048800;28;20812;-66
2023/11/27 06:05:52;;;;;;;9.73;2.50;;;2.70;99.90;;;;;;5048023;28;20476;-66
2023/11/27 06:08:21;;;;;;;7.93;2.70;;;2.60;99.90;;;;;;5047008;28;20475;-65
2023/11/27 06:10:49;;;;;;;9.13;3.17;;;2.60;99.90;;;;;;5046917;28;20463;-68
2023/11/27 06:13:17;;;;;;;9.30;2.97;;;2.70;99.90;;;;;;5044841;28;20442;-65
2023/11/27 06:15:46;;;;;;;8.03;2.47;;;2.70;99.90;;;;;;5047107;28;20437;-66
2023/11/27 06:18:15;;;;;;;8.60;2.60;;;2.80;99.90;;;;;;5047160;28;20451;-64
2023/11/27 06:20:43;;;;;;;7.67;2.60;;;2.80;99.90;;;;;;5045719;28;20459;-65
2023/11/27 06:23:11;;;;;;;10.30;3.10;;;2.80;99.90;;;;;;5047531;28;20444;-66
2023/11/27 06:25:40;;;;;;;9.20;2.87;;;2.70;99.90;;;;;;5049022;28;20865;-64
2023/11/27 06:28:08;;;;;;;9.30;2.83;;;2.70;99.90;;;;;;5050686;28;20872;-66
2023/11/27 06:30:36;;;;;;;10.50;3.10;;;2.70;99.90;;;;;;5049245;28;20471;-66
2023/11/27 06:33:04;;;;;;;12.00;3.00;;;2.60;99.90;;;;;;5056109;28;20538;-68
2023/11/27 06:35:32;;;;;;;10.03;2.77;;;2.70;99.90;;;;;;5043365;28;20472;-67
2023/11/27 06:38:02;;;;;;;9.37;3.03;;;2.80;99.90;;;;;;5049268;28;20930;-67
2023/11/27 06:40:30;;;;;;;8.63;3.30;;;2.80;99.90;;;;;;5048708;28;20541;-66
2023/11/27 06:43:13;;;;;;;9.10;3.00;;;2.80;99.90;;;;;;5049379;28;20454;-67
2023/11/27 06:45:41;;;;;;;8.33;2.50;;;2.60;99.90;;;;;;5048379;28;20451;-66
2023/11/27 06:48:09;;;;;;;8.20;2.67;;;2.50;99.90;;;;;;5049063;28;20802;-67
2023/11/27 06:50:37;;;;;;;8.23;2.80;;;2.50;99.90;;;;;;5048773;28;20529;-66
2023/11/27 06:53:05;;;;;;;8.50;3.83;;;2.50;99.90;;;;;;5049159;28;20432;-66
2023/11/27 06:55:33;;;;;;;13.60;3.50;;;2.70;99.90;;;;;;5048086;28;20447;-67
2023/11/27 06:58:02;;;;;;;11.20;3.73;;;2.80;99.90;;;;;;5048813;28;20452;-66
2023/11/27 07:00:33;;;;;;;9.37;2.80;;;2.80;99.90;;;;;;5048347;28;20608;-66
2023/11/27 07:03:03;;;;;;;11.37;3.17;;;2.80;99.90;;;;;;5049590;28;20554;-68
2023/11/27 07:05:31;;;;;;;8.83;3.00;;;2.90;99.90;;;;;;5049201;28;20835;-66
2023/11/27 07:07:59;;;;;;;11.40;3.67;;;2.80;99.90;;;;;;5049800;28;20514;-67
2023/11/27 07:10:29;;;;;;;8.67;4.07;;;2.80;99.90;;;;;;5049526;28;20470;-68
2023/11/27 07:12:57;;;;;;;9.80;3.60;;;2.90;99.90;;;;;;5049995;28;20455;-66
2023/11/27 07:15:25;;;;;;;8.80;3.33;;;2.90;99.90;;;;;;5049972;28;20447;-67
2023/11/27 07:17:54;;;;;;;9.63;3.03;;;3.00;99.90;;;;;;5053155;28;20477;-66
2023/11/27 07:20:37;;;;;;;8.50;2.87;;;3.00;99.90;;;;;;5051589;28;20464;-67
2023/11/27 07:23:05;;;;;;;10.93;3.30;;;3.10;99.90;;;;;;5051920;28;20527;-66
2023/11/27 07:25:33;;;;;;;9.50;3.97;;;3.10;99.90;;;;;;5051218;28;20444;-65
2023/11/27 07:28:01;;;;;;;10.63;3.50;;;3.10;99.90;;;;;;5048739;28;20506;-66
2023/11/27 07:30:31;;;;;;;8.23;3.03;;;3.20;99.90;;;;;;5048266;28;20534;-67
2023/11/27 07:33:02;;;;;;;10.03;4.07;;;3.30;99.90;;;;;;5057150;28;21001;-66
2023/11/27 07:35:30;;;;;;;11.13;3.50;;;3.30;99.90;;;;;;5049077;28;20452;-65
2023/11/27 07:37:58;;;;;;;9.90;3.50;;;3.40;99.90;;;;;;5050797;28;20468;-63
2023/11/27 07:40:27;;;;;;;10.70;3.63;;;3.50;99.90;;;;;;5049515;28;20468;-69
2023/11/27 07:42:55;;;;;;;12.30;3.93;;;3.60;99.90;;;;;;5048511;28;20448;-65
2023/11/27 07:45:23;;;;;;;11.10;4.10;;;3.60;99.90;;;;;;5047550;28;20444;-65
2023/11/27 07:47:51;;;;;;;8.73;3.20;;;3.70;99.90;;;;;;5046765;28;20488;-65
2023/11/27 07:50:21;;;;;;;10.10;3.10;;;3.80;99.90;;;;;;5048837;28;20546;-68
2023/11/27 07:52:49;;;;;;;8.70;3.60;;;3.90;99.90;;;;;;5048975;28;20552;-66
2023/11/27 07:55:17;;;;;;;9.97;3.80;;;3.90;99.90;;;;;;5048455;28;20448;-65
2023/11/27 07:57:45;;;;;;;8.80;3.43;;;3.90;99.90;;;;;;5049010;28;20472;-66
2023/11/27 08:00:16;;;;;;;8.53;2.90;;;3.90;99.90;;;;;;5047596;28;20488;-66
2023/11/27 08:02:44;;;;;;;9.20;3.10;;;4.00;99.90;;;;;;5047642;28;20451;-67
2023/11/27 08:05:15;;;;;;;8.73;2.90;;;4.00;99.90;;;;;;5047095;28;20493;-69
2023/11/27 08:07:45;;;;;;;9.23;3.50;;;4.10;99.90;;;;;;5047727;28;20489;-65
2023/11/27 08:10:12;;;;;;;11.50;3.33;;;4.10;99.90;;;;;;5047221;28;20829;-68
2023/11/27 08:12:42;;;;;;;9.60;3.23;;;4.30;99.90;;;;;;5047482;28;20445;-67
2023/11/27 08:15:17;;;;;;;11.07;4.70;;;4.30;99.90;;;;;;5046799;28;20883;-66
2023/11/27 08:17:45;;;;;;;9.93;4.07;;;4.40;99.90;;;;;;5047604;28;20503;-66
2023/11/27 08:20:15;;;;;;;10.27;3.80;;;4.40;99.90;;;;;;5047184;28;20476;-66
2023/11/27 08:22:44;;;;;;;10.80;3.87;;;4.40;99.90;;;;;;5047678;28;20446;-64
2023/11/27 08:25:16;;;;;;;8.97;3.30;;;4.40;99.90;;;;;;5046665;28;20459;-67
2023/11/27 08:27:46;;;;;;;12.90;4.00;;;4.40;99.90;;;;;;5047531;28;20483;-68
2023/11/27 08:30:16;;;;;;;10.03;3.70;;;4.50;99.90;;;;;;5046315;28;20476;-66
2023/11/27 08:32:46;;;;;;;9.30;3.67;;;4.50;99.90;;;;;;5048076;28;20458;-65
2023/11/27 08:35:14;;;;;;;11.20;3.57;;;4.70;99.90;;;;;;5047695;28;20450;-67
2023/11/27 08:37:43;;;;;;;10.47;3.30;;;4.70;99.90;;;;;;5047774;28;20453;-67
2023/11/27 08:40:13;;;;;;;12.43;3.80;;;4.70;99.90;;;;;;5047157;28;20474;-66
2023/11/27 08:42:43;;;;;;;9.43;3.13;;;4.80;99.90;;;;;;5047161;28;20452;-67
2023/11/27 08:45:16;;;;;;;10.17;3.07;;;4.80;99.90;;;;;;5046504;28;20454;-67
2023/11/27 08:47:50;;;;;;;10.43;3.47;;;4.90;99.90;;;;;;5048014;28;20478;-66
2023/11/27 08:50:21;;;;;;;9.13;3.37;;;5.00;99.90;;;;;;5048187;28;20466;-65
2023/11/27 08:52:50;;;;;;;11.20;4.23;;;5.00;99.90;;;;;;5047416;28;20460;-66
2023/11/27 08:55:19;;;;;;;10.50;3.70;;;5.10;99.90;;;;;;5046696;28;21063;-66
2023/11/27 08:57:47;;;;;;;10.53;3.80;;;5.10;99.90;;;;;;5047070;28;20502;-66
2023/11/27 09:00:18;;;;;;;9.73;3.53;;;5.20;99.90;;;;;;5046634;28;20469;-67
2023/11/27 09:02:48;;;;;;;10.53;3.30;;;5.20;99.90;;;;;;5046051;28;21018;-69
2023/11/27 09:05:16;;;;;;;10.47;3.20;;;5.20;99.90;;;;;;5045974;28;20452;-67
2023/11/27 09:07:47;;;;;;;10.13;2.90;;;5.10;99.90;;;;;;5045581;28;20491;-67
2023/11/27 09:10:17;;;;;;;11.20;3.97;;;5.20;99.90;;;;;;5047194;28;20480;-65
2023/11/27 09:12:45;;;;;;;10.73;3.23;;;5.30;99.90;;;;;;5047355;28;20501;-65
2023/11/27 09:15:13;;;;;;;9.70;2.90;;;5.30;99.90;;;;;;5047028;28;20511;-68
2023/11/27 09:17:41;;;;;;;7.80;2.50;;;5.40;99.90;;;;;;5047421;28;20548;-67
2023/11/27 09:20:11;;;;;;;9.40;3.23;;;5.60;99.90;;;;;;5046947;28;20465;-67
2023/11/27 09:22:39;;;;;;;8.90;3.00;;;5.60;99.90;;;;;;5047311;28;20447;-64
2023/11/27 09:25:09;;;;;;;8.70;3.40;;;5.70;99.90;;;;;;5046845;28;20442;-67
2023/11/27 09:27:39;;;;;;;10.47;3.00;;;5.80;99.90;;;;;;5047088;28;21190;-66
2023/11/27 09:30:08;;;;;;;10.73;3.40;;;6.00;99.90;;;;;;5046980;28;20551;-69
2023/11/27 09:32:37;;;;;;;9.40;3.33;;;6.20;99.90;;;;;;5047363;28;20498;-67
2023/11/27 09:35:08;;;;;;;13.07;3.10;;;6.30;99.90;;;;;;5046587;28;20446;-67
2023/11/27 09:37:37;;;;;;;11.30;3.57;;;6.30;99.90;;;;;;5047146;28;20576;-66
2023/11/27 09:40:08;;;;;;;9.00;3.30;;;6.10;99.90;;;;;;5046776;28;21136;-66
2023/11/27 09:42:37;;;;;;;8.13;2.80;;;6.20;99.90;;;;;;5047361;28;20836;-68
2023/11/27 09:45:18;;;;;;;10.53;3.00;;;6.20;99.90;;;;;;5049634;28;20454;-65
2023/11/27 09:47:49;;;;;;;9.60;3.30;;;6.30;99.90;;;;;;5050870;28;20531;-67
2023/11/27 09:50:20;;;;;;;8.83;3.03;;;6.40;99.90;;;;;;5049392;28;20475;-68
2023/11/27 09:52:53;;;;;;;8.90;3.60;;;6.40;99.90;;;;;;5049883;28;20526;-68
2023/11/27 09:55:21;;;;;;;8.53;3.10;;;6.50;99.90;;;;;;5049198;28;20459;-66
2023/11/27 09:57:50;;;;;;;10.20;3.27;;;6.60;99.90;;;;;;5049915;28;20467;-68
2023/11/27 10:00:20;;;;;;;11.67;3.20;;;6.60;99.90;;;;;;5049820;28;20477;-68
2023/11/27 10:02:48;;;;;;;9.03;2.90;;;6.60;99.90;;;;;;5050030;28;20454;-65
2023/11/27 10:05:18;;;;;;;12.20;2.73;;;6.60;99.90;;;;;;5049890;28;20550;-67
2023/11/27 10:07:49;;;;;;;8.87;3.10;;;6.60;99.90;;;;;;5049302;28;20483;-65
2023/11/27 10:10:24;;;;;;;11.17;2.93;;;6.60;99.90;;;;;;5048920;28;20468;-68
2023/11/27 10:12:52;;;;;;;8.70;2.60;;;6.70;99.90;;;;;;5049150;28;21036;-67
2023/11/27 10:15:21;;;;;;;8.50;3.00;;;6.70;99.90;;;;;;5048669;28;20448;-67
2023/11/27 10:17:49;;;;;;;9.10;3.20;;;6.70;99.90;;;;;;5048220;28;20939;-68
2023/11/27 10:20:22;;;;;;;9.03;2.70;;;6.80;99.90;;;;;;5049745;28;20471;-65
2023/11/27 10:22:50;;;;;;;12.77;3.23;;;6.90;99.90;;;;;;5050304;28;20497;-67
2023/11/27 10:25:23;;;;;;;8.77;2.97;;;6.90;99.90;;;;;;5049560;28;20455;-69
2023/11/27 10:27:57;;;;;;;10.77;3.23;;;7.10;99.90;;;;;;5050033;28;21028;-67
2023/11/27 10:30:29;;;;;;;9.00;2.67;;;7.10;99.90;;;;;;5049430;28;20467;-70
2023/11/27 10:32:58;;;;;;;12.87;3.10;;;7.20;99.90;;;;;;5049958;28;20444;-64
2023/11/27 10:35:26;;;;;;;8.50;3.20;;;7.20;99.90;;;;;;5049482;28;20452;-67
2023/11/27 10:37:55;;;;;;;9.20;3.10;;;7.20;99.90;;;;;;5049129;28;20444;-66
2023/11/27 10:40:26;;;;;;;8.43;3.03;;;7.10;99.90;;;;;;5047874;28;20469;-65
2023/11/27 10:42:58;;;;;;;10.77;4.33;;;7.10;99.90;;;;;;5048816;28;20468;-64
2023/11/27 10:45:29;;;;;;;7.40;2.23;;;7.20;99.90;;;;;;5048334;28;20814;-67
2023/11/27 10:48:02;;;;;;;9.73;2.30;;;7.20;99.90;;;;;;5048510;28;20479;-65
2023/11/27 10:50:32;;;;;;;10.40;2.60;;;7.30;99.90;;;;;;5048203;28;20474;-67
2023/11/27 10:53:03;;;;;;;7.40;2.33;;;7.20;99.90;;;;;;5048932;28;20451;-66
2023/11/27 10:55:34;;;;;;;7.93;2.37;;;7.20;99.90;;;;;;5047319;28;20554;-67
2023/11/27 10:58:02;;;;;;;7.77;1.70;;;7.30;99.90;;;;;;5048523;28;20448;-65
2023/11/27 11:00:39;;;;;;;6.90;1.67;;;7.10;99.90;;;;;;5048034;28;20476;-65
2023/11/27 11:03:15;;;;;;;7.10;1.50;;;7.10;99.90;;;;;;5048470;28;20450;-69
2023/11/27 11:05:49;;;;;;;6.53;1.97;;;7.20;99.90;;;;;;5047602;28;20954;-65
2023/11/27 11:08:21;;;;;;;6.50;1.60;;;7.20;99.90;;;;;;5048771;28;20462;-66
2023/11/27 11:10:49;;;;;;;7.87;1.80;;;7.20;99.90;;;;;;5049562;28;20553;-65
2023/11/27 11:13:18;;;;;;;6.70;1.50;;;7.40;99.90;;;;;;5049629;28;20452;-67
2023/11/27 11:15:54;;;;;;;8.93;1.43;;;7.40;99.90;;;;;;5048956;28;21096;-65
2023/11/27 11:18:34;;;;;;;7.90;1.70;;;7.60;99.90;;;;;;5049274;28;20535;-67
2023/11/27 11:21:39;;;;;;;8.20;2.50;;;7.50;99.90;;;;;;5049819;28;20493;-65
2023/11/27 11:24:15;;;;;;;9.63;2.03;;;7.50;99.90;;;;;;5049048;28;20486;-66
2023/11/27 11:26:57;;;;;;;7.17;1.70;;;7.50;99.90;;;;;;5049692;28;20861;-65
2023/11/27 11:29:33;;;;;;;9.60;2.87;;;7.50;99.90;;;;;;5049036;28;20515;-66
2023/11/27 11:32:04;;;;;;;9.23;2.80;;;7.30;99.90;;;;;;5050179;28;20447;-66
2023/11/27 11:34:38;;;;;;;7.43;1.90;;;7.30;99.90;;;;;;5048408;28;20452;-67
2023/11/27 11:37:07;;;;;;;8.90;2.03;;;7.30;99.90;;;;;;5049199;28;20436;-65
2023/11/27 11:39:36;;;;;;;7.83;1.50;;;7.30;99.90;;;;;;5049139;28;20464;-64
2023/11/27 11:42:05;;;;;;;11.00;2.33;;;7.10;99.90;;;;;;5049216;28;20443;-63
2023/11/27 11:44:35;;;;;;;6.73;1.60;;;7.00;99.90;;;;;;5048862;28;20460;-65
2023/11/27 11:47:22;;;;;;;8.10;1.80;;;6.90;99.90;;;;;;5041043;28;20444;-63
2023/11/27 11:49:50;;;;;;;8.37;1.80;;;6.90;99.90;;;;;;5048232;28;20508;-64
2023/11/27 11:52:19;;;;;;;7.70;2.70;;;6.90;99.90;;;;;;5048550;28;20447;-65
2023/11/27 11:54:48;;;;;;;7.00;2.00;;;6.90;99.90;;;;;;5047691;28;20485;-64
2023/11/27 11:57:20;;;;;;;7.50;1.90;;;6.80;99.90;;;;;;5048421;28;20954;-58
2023/11/27 11:59:50;;;;;;;8.53;1.80;;;6.70;99.90;;;;;;5047774;28;20476;-63
2023/11/27 12:02:21;;;;;;;8.20;1.90;;;6.70;99.90;;;;;;5048613;28;20551;-61
2023/11/27 12:04:53;;;;;;;7.07;1.40;;;6.70;99.90;;;;;;5047785;28;20444;-62
2023/11/27 12:07:23;;;;;;;7.33;1.80;;;6.60;99.90;;;;;;5047561;28;20455;-66
2023/11/27 12:09:51;;;;;;;8.43;1.80;;;6.70;99.90;;;;;;5047674;28;20488;-62
2023/11/27 12:12:22;;;;;;;8.07;1.80;;;6.60;99.90;;;;;;5048363;28;21137;-66
2023/11/27 12:14:54;;;;;;;6.40;1.40;;;6.60;99.90;;;;;;5046771;28;20451;-63
2023/11/27 12:17:25;;;;;;;6.90;1.57;;;6.50;99.90;;;;;;5047058;28;20442;-66
2023/11/27 12:19:54;;;;;;;7.20;1.80;;;6.50;99.90;;;;;;5046821;28;20508;-63
2023/11/27 12:22:22;;;;;;;7.23;1.40;;;6.50;99.90;;;;;;5047712;28;20468;-69
2023/11/27 12:24:50;;;;;;;8.10;1.40;;;6.60;99.90;;;;;;5046355;28;20455;-65
2023/11/27 12:27:22;;;;;;;6.60;1.20;;;6.60;99.90;;;;;;5047054;28;20450;-62
2023/11/27 12:29:50;;;;;;;7.80;1.43;;;6.70;99.90;;;;;;5047012;28;21087;-60
2023/11/27 12:32:24;;;;;;;6.90;1.37;;;6.70;99.90;;;;;;5048047;28;20453;-63
2023/11/27 12:34:54;;;;;;;7.87;1.67;;;6.60;99.90;;;;;;5047319;28;20920;-63
2023/11/27 12:37:28;;;;;;;6.30;1.13;;;6.60;99.90;;;;;;5048665;28;20461;-66
2023/11/27 12:39:57;;;;;;;6.33;1.40;;;6.50;99.90;;;;;;5047201;28;20476;-70
2023/11/27 12:42:28;;;;;;;6.77;1.27;;;6.40;99.90;;;;;;5045767;28;20487;-65
2023/11/27 12:44:56;;;;;;;7.63;1.40;;;6.10;99.90;;;;;;5047609;28;20878;-69
2023/11/27 12:47:25;;;;;;;7.20;1.27;;;5.80;99.90;;;;;;5047828;28;20462;-64
2023/11/27 12:49:54;;;;;;;8.50;1.37;;;5.60;99.90;;;;;;5047640;28;20514;-64
2023/11/27 12:52:25;;;;;;;7.80;1.33;;;5.40;99.90;;;;;;5048173;28;20515;-65
2023/11/27 12:54:55;;;;;;;7.87;1.23;;;5.40;99.90;;;;;;5049703;28;20460;-65
2023/11/27 12:57:24;;;;;;;6.60;1.00;;;5.20;99.90;;;;;;5051238;28;20459;-64
2023/11/27 12:59:53;;;;;;;5.93;1.03;;;5.00;99.90;;;;;;5050227;28;20567;-65
2023/11/27 13:02:25;;;;;;;7.20;1.63;;;4.80;99.90;;;;;;5050738;28;20455;-69
2023/11/27 13:04:57;;;;;;;7.43;1.20;;;4.70;99.90;;;;;;5049469;28;20447;-62
2023/11/27 13:07:25;;;;;;;6.53;1.07;;;4.60;99.90;;;;;;5047764;28;20619;-64